Ellsworth, KS

2:22 PM CST on December 21, 2014 (GMT -0600)
Great Bend Municipal | Change Station
CLOSE
Current Station
Airport
Location: Great Bend,
Elevation: 1886 ft
Nearby Weather Stations

Elev 1886 ft 38.34 °N, 98.86 °W | Updated 7 minutes ago

Overcast
Overcast
41 °F
Feels Like 33 °F
N
15
Wind Variable Wind from South

Today
High -- | Low -- °F
--% Chance of Precip.
Yesterday
High -- | Low -- °F
Precip. -- in
7:47 AM 5:14 PM
Waning Crescent, 0% visible
Pressure 29.71 in
Visibility 2.5 miles
Clouds Overcast 500 ft
Windchill 33 °F
Dew Point 37 °F
Humidity 87%
Rainfall 0.00 in
Snow Depth Not available.
UV 1 out of 12
Pollen .10 out of 12
Air Quality Not available.
Flu Activity Not available.
METAR KGBD 212015Z AUTO 18013KT 2 1/2SM OVC005 05/03 A2971 RMK AO1

More Conditions Fewer Conditions

Pressure 29.71 in
Visibility 2.5 miles
Clouds Overcast 500 ft
Windchill 33 °F
Dew Point 37 °F
Humidity 87%
Rainfall 0.00 in
Snow Depth Not available.
UV 1 out of 12
Pollen .10 out of 12
Air Quality Not available.
Flu Activity Not available.
METAR KGBD 212015Z AUTO 18013KT 2 1/2SM OVC005 05/03 A2971 RMK AO1

More Conditions Fewer Conditions

10-Day Weather Forecast

Almanac

Astronomy

Dec. 21, 2014 Rise Set
Actual Time
Civil Twilight
Nautical Twilight
Astronomical Twilight
Moon
Length of Visible Light
Length of Day
Tomorrow will be .
, % of the Moon is Illuminated

Today's Extremes

State Highs State Lows

Community

WunderPhotos

Upload Photos

1,779,469 photos uploaded!

WunderBlogs® & News

Nearby

Air Quality

  Air Quality AQ Index Pollutant
Not available.

Snow Depth

Station Depth Elevation

Earthquake Activity

City Distance Mag. Time & Date
Minimum magnitude displayed is 2.5.

Coastal Water Temperatures

Place Temperature

Nearby Weather Stations